Time;durP1;ratioP1;P1;durP2;ratioP2;P2;SDS_P1;SDS_P2;PMS_P1;PMS_P2;Temp;Humidity;BMP_temperature;BMP_pressure;BME280_temperature;BME280_humidity;BME280_pressure;Samples;Min_cycle;Max_cycle;Signal;HPM_P1;HPM_P2
2022/07/22 00:00:47;;;;;;;6.90;6.22;;;;;;;;;;2081479;28;20550;-73
2022/07/22 00:02:05;;;;;;;8.35;6.22;;;;;;;;;;2080600;28;20029;-74
2022/07/22 00:03:24;;;;;;;7.53;6.63;;;;;;;;;;2081357;28;20025;-74
2022/07/22 00:04:43;;;;;;;7.25;6.18;;;;;;;;;;2081435;28;20041;-74
2022/07/22 00:06:02;;;;;;;7.10;6.47;;;;;;;;;;2081640;28;20045;-73
2022/07/22 00:07:21;;;;;;;8.25;6.68;;;;;;;;;;2072432;28;20022;-74
2022/07/22 00:08:40;;;;;;;9.82;6.22;;;;;;;;;;2073113;28;20033;-74
2022/07/22 00:09:59;;;;;;;7.47;6.47;;;;;;;;;;2081034;28;20029;-74
2022/07/22 00:11:18;;;;;;;9.82;6.20;;;;;;;;;;2082167;28;20414;-75
2022/07/22 00:12:38;;;;;;;7.18;5.95;;;;;;;;;;2081198;28;20021;-74
2022/07/22 00:13:57;;;;;;;8.07;6.38;;;;;;;;;;2081550;28;20026;-74
2022/07/22 00:15:16;;;;;;;7.78;5.68;;;;;;;;;;2080909;28;20017;-77
2022/07/22 00:16:35;;;;;;;6.82;6.20;;;;;;;;;;2080792;28;20037;-74
2022/07/22 00:17:54;;;;;;;9.05;6.75;;;;;;;;;;2081481;28;20534;-74
2022/07/22 00:19:13;;;;;;;7.45;6.28;;;;;;;;;;2072708;28;20109;-74
2022/07/22 00:20:31;;;;;;;7.25;6.43;;;;;;;;;;2077489;28;20017;-75
2022/07/22 00:21:51;;;;;;;7.60;5.93;;;;;;;;;;2072126;28;20528;-74
2022/07/22 00:23:09;;;;;;;6.95;6.32;;;;;;;;;;2076783;28;20475;-74
2022/07/22 00:24:28;;;;;;;9.10;6.10;;;;;;;;;;2081166;28;20025;-74
2022/07/22 00:25:47;;;;;;;8.57;6.20;;;;;;;;;;2076238;28;20554;-74
2022/07/22 00:27:06;;;;;;;7.32;5.97;;;;;;;;;;2079674;28;20029;-74
2022/07/22 00:28:25;;;;;;;8.82;6.45;;;;;;;;;;2080556;28;20057;-74
2022/07/22 00:29:44;;;;;;;9.02;6.95;;;;;;;;;;2081109;28;20029;-74
2022/07/22 00:31:03;;;;;;;6.55;5.68;;;;;;;;;;2072349;28;20038;-74
2022/07/22 00:32:22;;;;;;;7.93;6.18;;;;;;;;;;2077744;28;20406;-74
2022/07/22 00:33:41;;;;;;;6.57;6.00;;;;;;;;;;2081416;28;20708;-74
2022/07/22 00:35:00;;;;;;;12.80;6.25;;;;;;;;;;2081261;28;20037;-74
2022/07/22 00:36:19;;;;;;;6.75;6.25;;;;;;;;;;2071962;28;20029;-74
2022/07/22 00:37:38;;;;;;;9.30;5.95;;;;;;;;;;2077175;28;20490;-73
2022/07/22 00:38:58;;;;;;;7.30;6.55;;;;;;;;;;2081035;28;20104;-74
2022/07/22 00:40:17;;;;;;;8.63;6.60;;;;;;;;;;2072133;28;20026;-74
2022/07/22 00:41:36;;;;;;;10.02;6.88;;;;;;;;;;2072920;28;20034;-74
2022/07/22 00:42:54;;;;;;;9.70;6.40;;;;;;;;;;2078561;28;20029;-73
2022/07/22 00:44:13;;;;;;;11.77;7.55;;;;;;;;;;2080337;28;20029;-74
2022/07/22 00:45:32;;;;;;;7.28;6.53;;;;;;;;;;2072523;28;20026;-74
2022/07/22 00:46:51;;;;;;;8.13;6.40;;;;;;;;;;2077738;28;20033;-74
2022/07/22 00:48:10;;;;;;;7.95;7.00;;;;;;;;;;2080655;28;20029;-73
2022/07/22 00:49:29;;;;;;;9.25;7.15;;;;;;;;;;2072133;28;20400;-74
2022/07/22 00:50:47;;;;;;;7.93;7.00;;;;;;;;;;2077048;28;20394;-74
2022/07/22 00:52:06;;;;;;;7.38;6.72;;;;;;;;;;2072137;28;20037;-74
2022/07/22 00:53:25;;;;;;;7.78;7.03;;;;;;;;;;2077910;28;20034;-74
2022/07/22 00:54:44;;;;;;;8.27;6.65;;;;;;;;;;2081353;28;20061;-74
2022/07/22 00:56:03;;;;;;;9.65;7.03;;;;;;;;;;2081203;28;20433;-74
2022/07/22 00:57:23;;;;;;;9.13;6.78;;;;;;;;;;2080460;28;20495;-74
2022/07/22 00:58:42;;;;;;;7.50;6.80;;;;;;;;;;2072420;28;20022;-74
2022/07/22 01:00:02;;;;;;;7.68;6.90;;;;;;;;;;2077340;28;20467;-77
2022/07/22 01:01:21;;;;;;;12.88;7.15;;;;;;;;;;2080789;28;20030;-74
2022/07/22 01:02:40;;;;;;;8.02;6.97;;;;;;;;;;2072430;28;20515;-74
2022/07/22 01:03:59;;;;;;;7.95;7.15;;;;;;;;;;2071451;28;20038;-74
2022/07/22 01:05:19;;;;;;;8.30;6.85;;;;;;;;;;2076698;28;20018;-74
2022/07/22 01:06:37;;;;;;;6.85;6.18;;;;;;;;;;2071709;28;20516;-73
2022/07/22 01:07:56;;;;;;;7.15;6.35;;;;;;;;;;2068826;28;20038;-73
2022/07/22 01:09:15;;;;;;;8.68;6.75;;;;;;;;;;2077655;28;20475;-73
2022/07/22 01:10:34;;;;;;;10.63;7.30;;;;;;;;;;2080873;28;20026;-73
2022/07/22 01:11:53;;;;;;;11.20;7.45;;;;;;;;;;2077205;28;20422;-78
2022/07/22 01:13:11;;;;;;;10.38;7.57;;;;;;;;;;2079580;28;20065;-74
2022/07/22 01:14:30;;;;;;;12.23;7.00;;;;;;;;;;2081715;28;20054;-74
2022/07/22 01:15:49;;;;;;;9.93;7.38;;;;;;;;;;2071893;28;20042;-73
2022/07/22 01:17:08;;;;;;;9.52;7.55;;;;;;;;;;2076609;28;20030;-73
2022/07/22 01:18:27;;;;;;;8.52;7.13;;;;;;;;;;2070776;28;20030;-74
2022/07/22 01:19:46;;;;;;;7.25;6.63;;;;;;;;;;2071582;28;20029;-74
2022/07/22 01:21:05;;;;;;;9.77;6.82;;;;;;;;;;2077039;28;20041;-74
2022/07/22 01:22:26;;;;;;;11.98;6.63;;;;;;;;;;2080878;28;20030;-74
2022/07/22 01:23:45;;;;;;;8.02;7.18;;;;;;;;;;2080145;28;20021;-73
2022/07/22 01:25:05;;;;;;;10.38;6.75;;;;;;;;;;2080641;28;20390;-74
2022/07/22 01:26:24;;;;;;;7.00;6.38;;;;;;;;;;2079596;28;20017;-74
2022/07/22 01:27:43;;;;;;;7.63;6.90;;;;;;;;;;2071891;28;20034;-74
2022/07/22 01:29:03;;;;;;;8.00;7.15;;;;;;;;;;2076768;28;20065;-75
2022/07/22 01:30:21;;;;;;;10.85;7.53;;;;;;;;;;2072373;28;20029;-74
2022/07/22 01:31:40;;;;;;;9.70;6.88;;;;;;;;;;2068501;28;20022;-74
2022/07/22 01:32:59;;;;;;;7.82;6.82;;;;;;;;;;2076563;28;20033;-74
2022/07/22 01:34:18;;;;;;;7.85;7.00;;;;;;;;;;2080231;28;20100;-74
2022/07/22 01:35:37;;;;;;;10.77;8.93;;;;;;;;;;2080385;28;20154;-74
2022/07/22 01:36:56;;;;;;;11.02;7.93;;;;;;;;;;2080908;28;20037;-74
2022/07/22 01:38:16;;;;;;;9.70;7.82;;;;;;;;;;2079816;28;20030;-74
2022/07/22 01:39:35;;;;;;;8.50;7.70;;;;;;;;;;2080365;28;20494;-74
2022/07/22 01:40:54;;;;;;;7.97;7.25;;;;;;;;;;2071659;28;20038;-74
2022/07/22 01:42:13;;;;;;;7.82;7.05;;;;;;;;;;2077365;28;20077;-74
2022/07/22 01:43:32;;;;;;;8.48;7.63;;;;;;;;;;2080794;28;20021;-74
2022/07/22 01:44:51;;;;;;;10.40;7.07;;;;;;;;;;2080992;28;20045;-74
2022/07/22 01:46:10;;;;;;;10.50;7.05;;;;;;;;;;2070747;28;20030;-74
2022/07/22 01:47:29;;;;;;;9.48;7.82;;;;;;;;;;2076045;28;20030;-74
2022/07/22 01:48:48;;;;;;;7.55;6.65;;;;;;;;;;2071512;28;20034;-74
2022/07/22 01:50:08;;;;;;;9.68;6.82;;;;;;;;;;2075175;28;20037;-74
2022/07/22 01:51:27;;;;;;;8.32;7.13;;;;;;;;;;2078572;28;20025;-74
2022/07/22 01:52:46;;;;;;;7.88;6.90;;;;;;;;;;2071656;28;20066;-74
2022/07/22 01:54:04;;;;;;;12.65;7.30;;;;;;;;;;2068212;28;20062;-74
2022/07/22 01:55:23;;;;;;;9.70;7.25;;;;;;;;;;2077090;28;20034;-74
2022/07/22 01:56:42;;;;;;;11.02;7.40;;;;;;;;;;2071714;28;20046;-74
2022/07/22 01:58:01;;;;;;;7.28;6.68;;;;;;;;;;2077255;28;20057;-73
2022/07/22 01:59:20;;;;;;;8.68;7.43;;;;;;;;;;2080573;28;20030;-74
2022/07/22 02:00:39;;;;;;;10.95;7.72;;;;;;;;;;2080344;28;20025;-74
2022/07/22 02:01:58;;;;;;;7.90;6.75;;;;;;;;;;2079828;28;20033;-73
2022/07/22 02:03:17;;;;;;;7.30;6.70;;;;;;;;;;2071341;28;20030;-74
2022/07/22 02:04:35;;;;;;;9.13;6.85;;;;;;;;;;2077493;28;20033;-74
2022/07/22 02:05:55;;;;;;;8.90;6.63;;;;;;;;;;2080958;28;20037;-74
2022/07/22 02:07:14;;;;;;;9.45;7.22;;;;;;;;;;2080559;28;20026;-74
2022/07/22 02:08:33;;;;;;;13.50;7.57;;;;;;;;;;2071706;28;20034;-74
2022/07/22 02:09:52;;;;;;;10.65;7.55;;;;;;;;;;2076990;28;20037;-75
2022/07/22 02:11:11;;;;;;;10.00;7.15;;;;;;;;;;2071939;28;20503;-74
2022/07/22 02:12:30;;;;;;;9.23;7.55;;;;;;;;;;2068853;28;20026;-75
2022/07/22 02:13:49;;;;;;;7.80;7.10;;;;;;;;;;2071559;28;20523;-74
2022/07/22 02:15:08;;;;;;;8.75;7.60;;;;;;;;;;2071212;28;20030;-74
2022/07/22 02:16:27;;;;;;;9.45;8.15;;;;;;;;;;2076703;28;20025;-74
2022/07/22 02:17:45;;;;;;;11.77;7.45;;;;;;;;;;2080853;28;20403;-74
2022/07/22 02:19:04;;;;;;;7.43;6.90;;;;;;;;;;2080133;28;20074;-74
2022/07/22 02:20:23;;;;;;;8.77;7.20;;;;;;;;;;2071728;28;20077;-75
2022/07/22 02:21:42;;;;;;;7.80;6.88;;;;;;;;;;2076149;28;20026;-75
2022/07/22 02:23:01;;;;;;;8.82;7.40;;;;;;;;;;2080459;28;20109;-74
2022/07/22 02:24:20;;;;;;;8.48;6.95;;;;;;;;;;2080294;28;20127;-74
2022/07/22 02:25:40;;;;;;;8.00;7.30;;;;;;;;;;2078273;28;20029;-75
2022/07/22 02:26:59;;;;;;;7.82;7.07;;;;;;;;;;2072013;28;20034;-73
2022/07/22 02:28:17;;;;;;;8.10;7.30;;;;;;;;;;2076999;28;20391;-75
2022/07/22 02:29:36;;;;;;;8.18;7.38;;;;;;;;;;2071720;28;20407;-74
2022/07/22 02:30:55;;;;;;;8.27;7.07;;;;;;;;;;2078101;28;20475;-74
2022/07/22 02:32:14;;;;;;;13.65;8.30;;;;;;;;;;2081979;28;20495;-74
2022/07/22 02:33:34;;;;;;;8.35;7.55;;;;;;;;;;2070817;28;20037;-74
2022/07/22 02:34:53;;;;;;;10.38;7.18;;;;;;;;;;2078494;28;20495;-73
2022/07/22 02:36:12;;;;;;;8.55;7.75;;;;;;;;;;2081199;28;20487;-74
2022/07/22 02:37:31;;;;;;;8.02;7.20;;;;;;;;;;2081541;28;20025;-74
2022/07/22 02:38:49;;;;;;;8.88;8.00;;;;;;;;;;2082221;28;20045;-74
2022/07/22 02:40:09;;;;;;;8.85;7.22;;;;;;;;;;2082305;28;20434;-74
2022/07/22 02:41:27;;;;;;;8.30;7.50;;;;;;;;;;2072800;28;20483;-75
2022/07/22 02:42:46;;;;;;;8.43;6.97;;;;;;;;;;2076015;28;20484;-74
2022/07/22 02:44:05;;;;;;;9.07;6.95;;;;;;;;;;2073083;28;20030;-74
2022/07/22 02:45:24;;;;;;;8.57;7.78;;;;;;;;;;2078375;28;20387;-74
2022/07/22 02:46:42;;;;;;;7.97;6.85;;;;;;;;;;2073270;28;20038;-74
2022/07/22 02:48:01;;;;;;;9.65;7.45;;;;;;;;;;2078406;28;20026;-74
2022/07/22 02:49:20;;;;;;;9.00;7.47;;;;;;;;;;2082067;28;20034;-74
2022/07/22 02:50:44;;;;;;;11.20;7.30;;;;;;;;;;2082052;28;20030;-74
2022/07/22 02:52:03;;;;;;;13.02;7.40;;;;;;;;;;2081374;28;20033;-74
2022/07/22 02:53:22;;;;;;;8.00;7.30;;;;;;;;;;2078158;28;20044;-74
2022/07/22 02:54:41;;;;;;;8.35;7.40;;;;;;;;;;2072142;28;20508;-74
2022/07/22 02:55:59;;;;;;;8.60;7.60;;;;;;;;;;2077928;28;20041;-75
2022/07/22 02:57:18;;;;;;;12.60;7.55;;;;;;;;;;2081202;28;20594;-75
2022/07/22 02:58:37;;;;;;;8.38;7.55;;;;;;;;;;2078209;28;20050;-74
2022/07/22 02:59:56;;;;;;;8.40;7.78;;;;;;;;;;2071186;28;20029;-74
2022/07/22 03:01:15;;;;;;;8.55;7.65;;;;;;;;;;2078052;28;20033;-74
2022/07/22 03:02:33;;;;;;;9.93;7.38;;;;;;;;;;2081704;28;20037;-73
2022/07/22 03:03:52;;;;;;;10.10;7.60;;;;;;;;;;2081717;28;20033;-75
2022/07/22 03:05:12;;;;;;;9.68;8.13;;;;;;;;;;2072631;28;20416;-74
2022/07/22 03:06:31;;;;;;;10.02;7.53;;;;;;;;;;2075386;28;20499;-75
2022/07/22 03:07:50;;;;;;;9.88;7.65;;;;;;;;;;2071977;28;20033;-74
2022/07/22 03:09:10;;;;;;;9.43;7.40;;;;;;;;;;2077944;28;20038;-74
2022/07/22 03:10:29;;;;;;;8.65;7.70;;;;;;;;;;2072971;28;20029;-74
2022/07/22 03:11:47;;;;;;;10.68;7.97;;;;;;;;;;2072493;28;20396;-73
2022/07/22 03:13:06;;;;;;;8.80;8.05;;;;;;;;;;2078208;28;20041;-74
2022/07/22 03:14:25;;;;;;;8.52;7.68;;;;;;;;;;2081784;28;20452;-74
2022/07/22 03:15:44;;;;;;;9.82;7.95;;;;;;;;;;2081743;28;20041;-76
2022/07/22 03:17:03;;;;;;;9.80;7.60;;;;;;;;;;2072984;28;20042;-74
2022/07/22 03:18:22;;;;;;;9.20;7.68;;;;;;;;;;2077831;28;20037;-74
2022/07/22 03:19:41;;;;;;;8.75;7.90;;;;;;;;;;2080806;28;20038;-74
2022/07/22 03:21:00;;;;;;;9.55;8.52;;;;;;;;;;2073427;28;20033;-74
2022/07/22 03:22:19;;;;;;;8.18;7.38;;;;;;;;;;2070046;28;20507;-74
2022/07/22 03:23:37;;;;;;;11.07;7.75;;;;;;;;;;2074732;28;20026;-74
2022/07/22 03:24:56;;;;;;;9.05;8.00;;;;;;;;;;2079430;28;20482;-74
2022/07/22 03:26:15;;;;;;;8.52;7.75;;;;;;;;;;2081878;28;20041;-74
2022/07/22 03:27:34;;;;;;;8.75;7.88;;;;;;;;;;2081439;28;20457;-74
2022/07/22 03:28:53;;;;;;;8.90;8.00;;;;;;;;;;2081810;28;20033;-77
2022/07/22 03:30:12;;;;;;;11.13;8.65;;;;;;;;;;2082123;28;20391;-74
2022/07/22 03:31:31;;;;;;;9.13;7.97;;;;;;;;;;2081466;28;20029;-74
2022/07/22 03:32:50;;;;;;;9.55;7.95;;;;;;;;;;2081357;28;20061;-75
2022/07/22 03:34:09;;;;;;;9.63;8.60;;;;;;;;;;2080614;28;20034;-74
2022/07/22 03:35:28;;;;;;;10.63;8.18;;;;;;;;;;2067199;28;20125;-74
2022/07/22 03:36:47;;;;;;;8.82;8.02;;;;;;;;;;2070185;28;20026;-74
2022/07/22 03:38:06;;;;;;;10.70;8.45;;;;;;;;;;2072409;28;20026;-74
2022/07/22 03:39:25;;;;;;;10.52;8.05;;;;;;;;;;2073141;28;20029;-74
2022/07/22 03:40:44;;;;;;;8.98;8.05;;;;;;;;;;2072778;28;20030;-75
2022/07/22 03:42:03;;;;;;;8.77;7.57;;;;;;;;;;2064283;28;20500;-74
2022/07/22 03:43:22;;;;;;;9.48;8.52;;;;;;;;;;2069429;28;20543;-74
2022/07/22 03:44:41;;;;;;;8.95;8.02;;;;;;;;;;2073659;28;20022;-74
2022/07/22 03:46:00;;;;;;;8.93;7.50;;;;;;;;;;2072656;28;20022;-74
2022/07/22 03:47:19;;;;;;;8.48;7.63;;;;;;;;;;2072935;28;20014;-74
2022/07/22 03:48:38;;;;;;;8.90;8.18;;;;;;;;;;2064856;28;20038;-75
2022/07/22 03:49:58;;;;;;;9.13;8.23;;;;;;;;;;2064500;28;20113;-74
2022/07/22 03:51:16;;;;;;;11.25;7.75;;;;;;;;;;2070193;28;20026;-74
2022/07/22 03:52:36;;;;;;;8.85;8.07;;;;;;;;;;2074127;28;20018;-74
2022/07/22 03:53:55;;;;;;;8.40;7.70;;;;;;;;;;2064276;28;20113;-74
2022/07/22 03:55:13;;;;;;;9.20;8.23;;;;;;;;;;2069618;28;20042;-74
2022/07/22 03:56:32;;;;;;;10.23;8.15;;;;;;;;;;2064763;28;20034;-75
2022/07/22 03:57:51;;;;;;;12.85;7.72;;;;;;;;;;2061554;28;20038;-74
2022/07/22 03:59:10;;;;;;;10.40;7.68;;;;;;;;;;2061340;28;20026;-73
2022/07/22 04:00:29;;;;;;;8.23;7.53;;;;;;;;;;2061195;28;20026;-74
2022/07/22 04:01:48;;;;;;;8.88;7.85;;;;;;;;;;2069486;28;20030;-74
2022/07/22 04:03:07;;;;;;;9.13;8.23;;;;;;;;;;2072838;28;20030;-74
2022/07/22 04:04:26;;;;;;;9.60;8.50;;;;;;;;;;2064386;28;20511;-74
2022/07/22 04:05:45;;;;;;;8.43;7.80;;;;;;;;;;2068440;28;20105;-74
2022/07/22 04:07:04;;;;;;;9.27;8.40;;;;;;;;;;2072757;28;20026;-73
2022/07/22 04:08:23;;;;;;;11.50;8.10;;;;;;;;;;2064840;28;20412;-74
2022/07/22 04:09:42;;;;;;;9.00;8.07;;;;;;;;;;2057457;28;20459;-73
2022/07/22 04:11:00;;;;;;;9.18;7.95;;;;;;;;;;2068126;28;20407;-74
2022/07/22 04:12:19;;;;;;;11.63;8.07;;;;;;;;;;2064467;28;20038;-73
2022/07/22 04:13:38;;;;;;;8.77;8.07;;;;;;;;;;2061210;28;20038;-73
2022/07/22 04:14:57;;;;;;;7.95;7.15;;;;;;;;;;2069761;28;20403;-73
2022/07/22 04:16:16;;;;;;;7.95;7.20;;;;;;;;;;2071707;28;20026;-74
2022/07/22 04:17:35;;;;;;;8.57;7.85;;;;;;;;;;2064986;28;20049;-74
2022/07/22 04:18:53;;;;;;;11.82;7.78;;;;;;;;;;2069905;28;20499;-73
2022/07/22 04:20:13;;;;;;;8.95;8.05;;;;;;;;;;2072583;28;20069;-74
2022/07/22 04:21:32;;;;;;;9.05;7.53;;;;;;;;;;2064365;28;20026;-74
2022/07/22 04:22:50;;;;;;;9.60;7.93;;;;;;;;;;2069185;28;20034;-73
2022/07/22 04:24:09;;;;;;;10.90;8.55;;;;;;;;;;2072839;28;20057;-74
2022/07/22 04:25:28;;;;;;;8.93;8.07;;;;;;;;;;2073045;28;20030;-73
2022/07/22 04:26:47;;;;;;;10.73;7.85;;;;;;;;;;2073361;28;20033;-74
2022/07/22 04:28:06;;;;;;;9.18;7.93;;;;;;;;;;2072937;28;20029;-73
2022/07/22 04:29:26;;;;;;;8.00;7.30;;;;;;;;;;2073104;28;20050;-73
2022/07/22 04:30:45;;;;;;;8.77;7.40;;;;;;;;;;2073436;28;20066;-73
2022/07/22 04:32:04;;;;;;;8.43;7.05;;;;;;;;;;2068548;28;20411;-73
2022/07/22 04:33:23;;;;;;;8.30;7.53;;;;;;;;;;2071468;28;20034;-73
2022/07/22 04:34:42;;;;;;;8.15;7.45;;;;;;;;;;2072868;28;20057;-73
2022/07/22 04:36:01;;;;;;;8.02;7.30;;;;;;;;;;2064067;28;20046;-74
2022/07/22 04:37:20;;;;;;;8.77;7.18;;;;;;;;;;2060714;28;20042;-74
2022/07/22 04:38:39;;;;;;;8.43;7.28;;;;;;;;;;2070576;28;20046;-75
2022/07/22 04:39:58;;;;;;;8.68;7.93;;;;;;;;;;2064196;28;20038;-74
2022/07/22 04:41:16;;;;;;;7.95;7.00;;;;;;;;;;2060951;28;20030;-75
2022/07/22 04:42:35;;;;;;;10.70;7.68;;;;;;;;;;2069543;28;20026;-75
2022/07/22 04:43:54;;;;;;;8.07;7.28;;;;;;;;;;2064250;28;20070;-75
2022/07/22 04:45:14;;;;;;;10.85;7.57;;;;;;;;;;2069679;28;20479;-75
2022/07/22 04:46:33;;;;;;;7.70;7.10;;;;;;;;;;2064542;28;20118;-74
2022/07/22 04:47:51;;;;;;;9.55;7.20;;;;;;;;;;2069458;28;20030;-74
2022/07/22 04:49:10;;;;;;;9.20;6.93;;;;;;;;;;2063893;28;20416;-74
2022/07/22 04:50:29;;;;;;;8.50;7.25;;;;;;;;;;2069048;28;20026;-75
2022/07/22 04:51:48;;;;;;;8.57;7.88;;;;;;;;;;2072903;28;20026;-74
2022/07/22 04:53:07;;;;;;;8.20;7.18;;;;;;;;;;2072283;28;20476;-74
2022/07/22 04:54:26;;;;;;;7.68;6.75;;;;;;;;;;2072363;28;20025;-75
2022/07/22 04:55:45;;;;;;;12.27;7.53;;;;;;;;;;2073323;28;20057;-74
2022/07/22 04:57:04;;;;;;;9.13;6.97;;;;;;;;;;2072952;28;20041;-74
2022/07/22 04:58:23;;;;;;;8.75;7.53;;;;;;;;;;2062894;28;20042;-75
2022/07/22 04:59:42;;;;;;;7.68;7.05;;;;;;;;;;2060964;28;20038;-75
2022/07/22 05:01:00;;;;;;;7.82;6.95;;;;;;;;;;2069436;28;20030;-74
2022/07/22 05:02:19;;;;;;;7.97;7.28;;;;;;;;;;2064136;28;20421;-74
2022/07/22 05:03:39;;;;;;;8.07;7.28;;;;;;;;;;2059249;28;20437;-74
2022/07/22 05:04:58;;;;;;;7.63;6.97;;;;;;;;;;2064319;28;20062;-74
2022/07/22 05:06:17;;;;;;;10.30;7.05;;;;;;;;;;2069455;28;20399;-74
2022/07/22 05:07:36;;;;;;;8.00;6.82;;;;;;;;;;2064215;28;20105;-75
2022/07/22 05:08:54;;;;;;;7.80;7.15;;;;;;;;;;2068978;28;20027;-74
2022/07/22 05:10:14;;;;;;;8.05;7.25;;;;;;;;;;2063129;28;20524;-74
2022/07/22 05:11:33;;;;;;;7.13;6.53;;;;;;;;;;2069631;28;20033;-75
2022/07/22 05:12:52;;;;;;;11.88;7.32;;;;;;;;;;2064103;28;20030;-75
2022/07/22 05:14:11;;;;;;;11.35;7.50;;;;;;;;;;2069169;28;20030;-74
2022/07/22 05:15:30;;;;;;;7.18;6.60;;;;;;;;;;2063968;28;20026;-76
2022/07/22 05:16:49;;;;;;;10.65;7.75;;;;;;;;;;2068284;28;20037;-75
2022/07/22 05:18:08;;;;;;;9.38;7.38;;;;;;;;;;2072861;28;20026;-74
2022/07/22 05:19:27;;;;;;;8.32;7.25;;;;;;;;;;2072934;28;20033;-78
2022/07/22 05:20:46;;;;;;;8.90;7.43;;;;;;;;;;2063967;28;20046;-75
2022/07/22 05:22:06;;;;;;;7.85;7.20;;;;;;;;;;2059822;28;20071;-74
2022/07/22 05:23:24;;;;;;;9.43;7.63;;;;;;;;;;2067789;28;20026;-75
2022/07/22 05:24:43;;;;;;;10.95;7.18;;;;;;;;;;2072649;28;20112;-76
2022/07/22 05:26:03;;;;;;;8.73;7.53;;;;;;;;;;2063803;28;20573;-74
2022/07/22 05:27:23;;;;;;;7.90;7.00;;;;;;;;;;2060645;28;20034;-74
2022/07/22 05:28:41;;;;;;;9.48;6.80;;;;;;;;;;2062833;28;20039;-74
2022/07/22 05:30:00;;;;;;;10.25;7.28;;;;;;;;;;2069104;28;20105;-75
2022/07/22 05:31:19;;;;;;;9.00;7.20;;;;;;;;;;2072080;28;20026;-74
2022/07/22 05:32:38;;;;;;;7.97;7.25;;;;;;;;;;2072542;28;20030;-75
2022/07/22 05:33:57;;;;;;;8.15;7.30;;;;;;;;;;2063541;28;20503;-74
2022/07/22 05:35:16;;;;;;;8.43;7.47;;;;;;;;;;2070664;28;20109;-74
2022/07/22 05:36:35;;;;;;;7.47;6.78;;;;;;;;;;2080507;28;20029;-74
2022/07/22 05:37:54;;;;;;;7.43;6.80;;;;;;;;;;2071883;28;20026;-74
2022/07/22 05:39:13;;;;;;;7.60;6.72;;;;;;;;;;2076612;28;20025;-74
2022/07/22 05:40:33;;;;;;;7.95;7.13;;;;;;;;;;2080777;28;20041;-75
2022/07/22 05:41:52;;;;;;;8.65;7.45;;;;;;;;;;2072364;28;20065;-75
2022/07/22 05:43:11;;;;;;;9.38;7.80;;;;;;;;;;2076430;28;20479;-74
2022/07/22 05:44:29;;;;;;;8.48;7.68;;;;;;;;;;2079459;28;20025;-75
2022/07/22 05:45:48;;;;;;;7.43;6.72;;;;;;;;;;2071491;28;20042;-74
2022/07/22 05:47:07;;;;;;;7.90;7.35;;;;;;;;;;2077348;28;20026;-75
2022/07/22 05:48:26;;;;;;;10.00;7.53;;;;;;;;;;2076198;28;20025;-74
2022/07/22 05:49:45;;;;;;;8.13;7.40;;;;;;;;;;2079358;28;20026;-74
2022/07/22 05:51:09;;;;;;;9.00;6.90;;;;;;;;;;2071534;28;20038;-75
2022/07/22 05:52:28;;;;;;;7.60;6.82;;;;;;;;;;2078032;28;20378;-75
2022/07/22 05:53:47;;;;;;;7.25;6.57;;;;;;;;;;2070777;28;20041;-77
2022/07/22 05:55:07;;;;;;;12.82;7.82;;;;;;;;;;2077385;28;20041;-73
2022/07/22 05:56:26;;;;;;;7.78;7.07;;;;;;;;;;2080508;28;20067;-75
2022/07/22 05:57:45;;;;;;;8.35;7.47;;;;;;;;;;2071526;28;20034;-73
2022/07/22 05:59:04;;;;;;;7.93;7.07;;;;;;;;;;2068759;28;20033;-74
2022/07/22 06:00:23;;;;;;;8.73;7.50;;;;;;;;;;2068187;28;20046;-73
2022/07/22 06:01:42;;;;;;;8.05;7.30;;;;;;;;;;2071670;28;20511;-73
2022/07/22 06:03:00;;;;;;;10.30;7.75;;;;;;;;;;2077177;28;20419;-73
2022/07/22 06:04:20;;;;;;;7.65;6.85;;;;;;;;;;2071707;28;20030;-73
2022/07/22 06:05:39;;;;;;;8.95;7.32;;;;;;;;;;2072685;28;20029;-77
2022/07/22 06:06:57;;;;;;;8.90;7.72;;;;;;;;;;2070060;28;20022;-76
2022/07/22 06:08:16;;;;;;;8.30;7.40;;;;;;;;;;2079196;28;20042;-73
2022/07/22 06:09:35;;;;;;;13.05;7.35;;;;;;;;;;2073343;28;20530;-74
2022/07/22 06:10:54;;;;;;;13.60;7.53;;;;;;;;;;2077757;28;20494;-74
2022/07/22 06:12:13;;;;;;;9.80;7.50;;;;;;;;;;2072948;28;20499;-73
2022/07/22 06:13:32;;;;;;;11.15;8.32;;;;;;;;;;2078677;28;20041;-74
2022/07/22 06:14:51;;;;;;;9.73;7.32;;;;;;;;;;2081277;28;20069;-75
2022/07/22 06:16:10;;;;;;;8.65;7.30;;;;;;;;;;2082051;28;20585;-74
2022/07/22 06:17:29;;;;;;;8.00;7.30;;;;;;;;;;2073460;28;20120;-75
2022/07/22 06:18:48;;;;;;;9.40;7.35;;;;;;;;;;2078649;28;20025;-74
2022/07/22 06:20:07;;;;;;;7.97;7.30;;;;;;;;;;2073025;28;20471;-74
2022/07/22 06:21:26;;;;;;;8.80;7.15;;;;;;;;;;2079206;28;20030;-74
2022/07/22 06:22:45;;;;;;;15.05;7.70;;;;;;;;;;2082143;28;20025;-75
2022/07/22 06:24:04;;;;;;;10.85;7.85;;;;;;;;;;2082112;28;20025;-74
2022/07/22 06:25:23;;;;;;;8.48;7.38;;;;;;;;;;2073537;28;20025;-74
2022/07/22 06:26:42;;;;;;;13.13;7.45;;;;;;;;;;2078749;28;20042;-74
2022/07/22 06:28:01;;;;;;;7.95;7.18;;;;;;;;;;2081834;28;20407;-75
2022/07/22 06:29:19;;;;;;;8.73;7.20;;;;;;;;;;2081502;28;20029;-75
2022/07/22 06:30:39;;;;;;;9.32;7.13;;;;;;;;;;2073125;28;20021;-75
2022/07/22 06:31:57;;;;;;;9.23;6.53;;;;;;;;;;2070568;28;20116;-75
2022/07/22 06:33:16;;;;;;;9.35;7.57;;;;;;;;;;2070272;28;20466;-74
2022/07/22 06:34:35;;;;;;;8.55;6.95;;;;;;;;;;2077768;28;20038;-74
2022/07/22 06:35:54;;;;;;;8.90;7.97;;;;;;;;;;2073167;28;20431;-75
2022/07/22 06:37:13;;;;;;;8.30;7.30;;;;;;;;;;2079046;28;20406;-75
2022/07/22 06:38:32;;;;;;;9.85;7.93;;;;;;;;;;2073317;28;20101;-75
2022/07/22 06:39:50;;;;;;;9.85;7.20;;;;;;;;;;2073089;28;20130;-74
2022/07/22 06:41:10;;;;;;;8.00;7.30;;;;;;;;;;2072297;28;20047;-75
2022/07/22 06:42:29;;;;;;;7.22;6.63;;;;;;;;;;2078061;28;20046;-75
2022/07/22 06:43:48;;;;;;;7.35;6.85;;;;;;;;;;2073388;28;20034;-74
2022/07/22 06:45:07;;;;;;;8.48;7.30;;;;;;;;;;2073703;28;20464;-75
2022/07/22 06:46:26;;;;;;;9.15;7.70;;;;;;;;;;2078941;28;20050;-75
2022/07/22 06:47:45;;;;;;;8.10;7.30;;;;;;;;;;2081846;28;20112;-75
2022/07/22 06:49:04;;;;;;;8.05;7.28;;;;;;;;;;2073005;28;20026;-74
2022/07/22 06:50:23;;;;;;;8.18;7.35;;;;;;;;;;2073009;28;20026;-75
2022/07/22 06:51:42;;;;;;;10.07;7.80;;;;;;;;;;2078625;28;20041;-75
2022/07/22 06:53:01;;;;;;;10.25;7.97;;;;;;;;;;2081779;28;20100;-75
2022/07/22 06:54:20;;;;;;;9.45;7.93;;;;;;;;;;2081539;28;20112;-74
2022/07/22 06:55:39;;;;;;;13.45;8.07;;;;;;;;;;2080717;28;20037;-74
2022/07/22 06:56:58;;;;;;;9.05;8.02;;;;;;;;;;2081721;28;20033;-74
2022/07/22 06:58:16;;;;;;;9.55;7.68;;;;;;;;;;2081689;28;20104;-75
2022/07/22 06:59:36;;;;;;;8.88;8.02;;;;;;;;;;2082036;28;20061;-74
2022/07/22 07:00:55;;;;;;;8.38;7.53;;;;;;;;;;2073596;28;20403;-74
2022/07/22 07:02:14;;;;;;;14.77;7.55;;;;;;;;;;2077776;28;20474;-75
2022/07/22 07:03:33;;;;;;;8.77;7.57;;;;;;;;;;2072783;28;20484;-75
2022/07/22 07:04:53;;;;;;;9.13;7.88;;;;;;;;;;2078298;28;20502;-75
2022/07/22 07:06:12;;;;;;;11.32;7.60;;;;;;;;;;2073165;28;20030;-74
2022/07/22 07:07:31;;;;;;;14.23;7.22;;;;;;;;;;2078814;28;20041;-74
2022/07/22 07:08:49;;;;;;;9.18;7.53;;;;;;;;;;2081495;28;20030;-75
2022/07/22 07:10:11;;;;;;;8.25;7.35;;;;;;;;;;2080267;28;20474;-75
2022/07/22 07:11:30;;;;;;;9.43;7.47;;;;;;;;;;2081219;28;20041;-75
2022/07/22 07:12:49;;;;;;;8.52;7.70;;;;;;;;;;2082042;28;20038;-74
2022/07/22 07:14:08;;;;;;;11.13;8.23;;;;;;;;;;2073031;28;20027;-75
2022/07/22 07:15:27;;;;;;;7.40;6.72;;;;;;;;;;2069708;28;20022;-75
2022/07/22 07:16:46;;;;;;;8.18;7.35;;;;;;;;;;2071707;28;20109;-75
2022/07/22 07:18:05;;;;;;;7.82;7.05;;;;;;;;;;2078614;28;20033;-75
2022/07/22 07:19:24;;;;;;;8.02;7.28;;;;;;;;;;2077148;28;20026;-76
2022/07/22 07:20:43;;;;;;;10.23;7.70;;;;;;;;;;2071984;28;20038;-75
2022/07/22 07:22:01;;;;;;;8.02;7.25;;;;;;;;;;2078195;28;20104;-75
2022/07/22 07:23:21;;;;;;;7.72;6.97;;;;;;;;;;2073025;28;20026;-76
2022/07/22 07:24:40;;;;;;;7.88;7.13;;;;;;;;;;2069697;28;20033;-75
2022/07/22 07:25:58;;;;;;;8.98;7.03;;;;;;;;;;2077324;28;20022;-74
2022/07/22 07:27:17;;;;;;;7.68;6.88;;;;;;;;;;2073292;28;20029;-76
2022/07/22 07:28:36;;;;;;;7.70;6.97;;;;;;;;;;2077945;28;20511;-76
2022/07/22 07:29:55;;;;;;;8.38;7.25;;;;;;;;;;2081739;28;20029;-75
2022/07/22 07:31:14;;;;;;;7.53;6.82;;;;;;;;;;2081047;28;20482;-77
2022/07/22 07:32:33;;;;;;;10.80;7.25;;;;;;;;;;2072528;28;20041;-75
2022/07/22 07:33:53;;;;;;;7.65;6.82;;;;;;;;;;2078307;28;20029;-75
2022/07/22 07:35:12;;;;;;;8.05;6.97;;;;;;;;;;2081626;28;20037;-75
2022/07/22 07:36:31;;;;;;;7.63;6.90;;;;;;;;;;2072792;28;20029;-75
2022/07/22 07:37:50;;;;;;;7.97;7.25;;;;;;;;;;2077450;28;20522;-74
2022/07/22 07:39:09;;;;;;;7.80;7.10;;;;;;;;;;2081250;28;20033;-76
2022/07/22 07:40:28;;;;;;;8.25;7.35;;;;;;;;;;2072643;28;20034;-75
2022/07/22 07:41:47;;;;;;;7.95;6.45;;;;;;;;;;2069490;28;20029;-75
2022/07/22 07:43:06;;;;;;;10.15;7.32;;;;;;;;;;2072923;28;20030;-75
2022/07/22 07:44:25;;;;;;;9.25;6.95;;;;;;;;;;2077296;28;20025;-75
2022/07/22 07:45:44;;;;;;;10.18;6.90;;;;;;;;;;2081076;28;20029;-75
2022/07/22 07:47:03;;;;;;;7.93;7.20;;;;;;;;;;2081541;28;20030;-75
2022/07/22 07:48:21;;;;;;;8.20;7.00;;;;;;;;;;2081819;28;20108;-75
2022/07/22 07:49:40;;;;;;;7.65;6.88;;;;;;;;;;2072954;28;20061;-75
2022/07/22 07:50:59;;;;;;;7.70;7.10;;;;;;;;;;2078096;28;20033;-75
2022/07/22 07:52:18;;;;;;;8.00;6.95;;;;;;;;;;2081277;28;20041;-76